Flight Track Log - Related Links

Times and Time Zones

All times are in EDT time to prevent confusion due to time zone crossing. See the USC105 flight status page for this flight to view local times or setup timezone preferences in your user account.

Time Position Orientation Groundspeed Altitude Reporting Facility
EDT Latitude Longitude Course Direction KTS MPH feet Rate Location/Type
Wed 10:57:45 PM 41.5417 -81.7039 314° West 127 146 2,100  Level Cleveland Center
Wed 10:58:40 PM 41.5581 -81.7458 298° West 160 184 2,600 522 Climbing Cleveland Center
Wed 10:59:40 PM 41.5742 -81.7989 292° West 159 183 3,100 545 Climbing Cleveland Center
Wed 11:00:41 PM 41.5964 -81.8575 297° West 158 182 3,700 541 Climbing Cleveland Center
Wed 11:01:42 PM 41.6189 -81.9053 302° West 156 180 4,200 496 Climbing Cleveland Center
Wed 11:02:42 PM 41.6392 -81.9556 298° West 146 168 4,700 545 Climbing Cleveland Center
Wed 11:03:43 PM 41.6572 -82.0033 297° West 148 170 5,300 469 Climbing Cleveland Center
Wed 11:04:50 PM 41.6775 -82.0567 297° West 148 170 5,700 331 Climbing Cleveland Center
Wed 11:05:50 PM 41.6892 -82.1097 286° West 145 167 6,000 149 Climbing Cleveland Center
Wed 11:06:51 PM 41.7072 -82.1603 296° West 153 176 6,000  Level Cleveland Center
Wed 11:07:34 PM 41.7214 -82.1939 299° West 151 174 6,000 76 Level Cleveland Center
Wed 11:08:10 PM 41.7314 -82.2275 292° West 152 175 6,100  Climbing Cleveland Center
Wed 11:09:11 PM 41.7492 -82.2836 293° West 158 182 6,000 -47 Descending Cleveland Center
Wed 11:10:17 PM 41.7631 -82.3425 288° West 159 183 6,000  Level Cleveland Center
Wed 11:11:24 PM 41.7828 -82.4044 293° West 156 180 6,000  Level Cleveland Center
Wed 11:12:07 PM 41.7947 -82.4436 292° West 155 178 6,000  Level Cleveland Center
Wed 11:13:01 PM 41.8086 -82.4942 290° West 153 176 6,000  Level Cleveland Center
Wed 11:14:08 PM 41.8242 -82.5503 290° West 161 185 6,000  Level Cleveland Center
Wed 11:15:09 PM 41.8419 -82.6067 293° West 168 193 6,000  Level Cleveland Center
Wed 11:16:04 PM 41.8661 -82.6547 304° West 173 199 6,000  Level Cleveland Center
Wed 11:17:11 PM 41.9114 -82.6953 326° Northwest 171 197 6,000 47 Level Cleveland Center
Wed 11:18:11 PM 41.9417 -82.7494 307° West 170 196 6,100  Climbing Cleveland Center
Wed 11:19:12 PM 41.9719 -82.7950 312° West 171 197 6,000 -41 Descending Cleveland Center
Wed 11:20:37 PM 42.0144 -82.8664 309° West 175 201 6,000  Level Cleveland Center
Wed 11:21:07 PM 42.0242 -82.8975 293° West 174 200 6,000  Level Cleveland Center
Wed 11:22:38 PM 42.0536 -82.9881 294° West 171 197 6,000 -47 Level Cleveland Center
Wed 11:23:15 PM 42.0675 -83.0222 299° West 171 197 5,900 -55 Descending Cleveland Center
Wed 11:24:28 PM 42.0889 -83.0931 292° West 173 199 5,900  Level Cleveland Center
Wed 11:25:22 PM 42.1086 -83.1442 297° West 175 201 5,900  Level Cleveland Center
Wed 11:26:17 PM 42.1261 -83.2008 293° West 176 203 5,900 -52 Level Cleveland Center
Wed 11:27:18 PM 42.1456 -83.2633 293° West 177 204 5,800 -310 Descending Cleveland Center
Wed 11:28:13 PM 42.1522 -83.3253 278° West 188 216 5,300 -446 Descending Cleveland Center
Wed 11:29:19 PM 42.1567 -83.4039 274° West 181 208 4,900 -347 Descending Cleveland Center
Wed 11:30:14 PM 42.1511 -83.4653 263° West 185 213 4,600 -517 Descending Cleveland Center
Wed 11:31:15 PM 42.1450 -83.5350 263° West 205 236 3,900 -689 Descending Cleveland Center
Wed 11:32:16 PM 42.1267 -83.6042 250° West 210 242 3,200 -645 Descending Cleveland Center
Wed 11:33:16 PM 42.1042 -83.6647 243° Southwest 214 246 2,600 -397 Descending Cleveland Center
Wed 11:34:17 PM 42.1500 -83.6642 North 151 174 2,400 -94 Descending Cleveland Center
Wed 11:35:24 PM 42.1761 -83.6178 53° Northeast 139 160 2,400 -328 Level Cleveland Center
Wed 11:36:25 PM 42.2000 -83.5853 45° Northeast 115 132 1,700 -645 Descending Cleveland Center
Wed 11:37:25 PM 42.2217 -83.5525 48° Northeast 113 130 1,100 -600 Descending Cleveland Center
Wed 11:39:00 PM 42.2333 -83.5167 336° Northwest  Level FlightAware Approximate
Wed 11:46:00 PM 42.2393 -83.5310 336° Northwest  Level Estimated

Login

Don't have an account? Register now (free) for customized features, flight alerts, and more!